Time;durP1;ratioP1;P1;durP2;ratioP2;P2;SDS_P1;SDS_P2;PMS_P1;PMS_P2;Temp;Humidity;BMP_temperature;BMP_pressure;BME280_temperature;BME280_humidity;BME280_pressure;Samples;Min_cycle;Max_cycle;Signal;HPM_P1;HPM_P2
2021/08/30 00:00:02;;;;;;;14.52;10.45;;;19.60;80.90;;;;;;5013405;28;20014;-81
2021/08/30 00:02:28;;;;;;;18.90;9.88;;;19.60;80.00;;;;;;5013537;28;20034;-80
2021/08/30 00:04:54;;;;;;;20.13;10.02;;;19.60;79.50;;;;;;5013143;28;20026;-80
2021/08/30 00:07:20;;;;;;;23.75;10.98;;;19.60;79.40;;;;;;5013449;28;20022;-83
2021/08/30 00:09:45;;;;;;;17.30;12.13;;;19.60;80.60;;;;;;5012691;28;20065;-82
2021/08/30 00:12:11;;;;;;;21.73;10.70;;;19.60;80.80;;;;;;5012821;28;20022;-83
2021/08/30 00:14:38;;;;;;;19.40;10.70;;;19.60;80.40;;;;;;5012639;28;20451;-83
2021/08/30 00:17:04;;;;;;;19.05;11.70;;;19.60;80.40;;;;;;5011301;28;20380;-81
2021/08/30 00:19:34;;;;;;;15.63;9.90;;;19.60;81.10;;;;;;5000663;28;20132;-83
2021/08/30 00:22:01;;;;;;;17.75;10.55;;;19.60;81.10;;;;;;5012868;28;20022;-83
2021/08/30 00:24:30;;;;;;;15.38;11.25;;;19.60;82.30;;;;;;5010738;28;20110;-83
2021/08/30 00:26:56;;;;;;;19.83;10.50;;;19.50;82.50;;;;;;5013329;28;20087;-82
2021/08/30 00:29:25;;;;;;;15.18;12.07;;;19.50;82.00;;;;;;5013163;28;20097;-84
2021/08/30 00:31:58;;;;;;;17.67;11.07;;;19.50;82.30;;;;;;5011675;28;20026;-83
2021/08/30 00:34:24;;;;;;;20.15;12.27;;;19.50;81.50;;;;;;5012692;28;20029;-82
2021/08/30 00:36:51;;;;;;;18.60;11.95;;;19.40;81.30;;;;;;5013117;28;20018;-82
2021/08/30 00:39:21;;;;;;;21.50;12.15;;;19.40;81.20;;;;;;5012927;28;20024;-83
2021/08/30 00:41:49;;;;;;;16.75;11.32;;;19.40;81.20;;;;;;5002918;28;20057;-83
2021/08/30 00:44:15;;;;;;;19.50;12.07;;;19.40;82.10;;;;;;5012589;28;20142;-81
2021/08/30 00:46:40;;;;;;;19.35;11.30;;;19.40;82.50;;;;;;5001055;28;20058;-83
2021/08/30 00:49:06;;;;;;;20.30;10.63;;;19.40;82.50;;;;;;5012867;28;20096;-82
2021/08/30 00:51:33;;;;;;;18.50;11.63;;;19.40;82.90;;;;;;5010883;28;20024;-82
2021/08/30 00:53:59;;;;;;;23.60;12.70;;;19.50;83.10;;;;;;5013437;28;20030;-82
2021/08/30 00:56:26;;;;;;;18.70;11.60;;;19.40;83.20;;;;;;5020006;28;20021;-81
2021/08/30 00:58:53;;;;;;;22.98;11.82;;;19.40;82.80;;;;;;5034728;28;20041;-81
2021/08/30 01:01:19;;;;;;;19.67;12.20;;;19.30;82.30;;;;;;5018325;28;20022;-83
2021/08/30 01:03:47;;;;;;;23.80;11.75;;;19.30;82.20;;;;;;5010358;28;20056;-82
2021/08/30 01:06:43;;;;;;;21.08;11.63;;;19.30;83.10;;;;;;5007658;28;20061;-82
2021/08/30 01:09:13;;;;;;;16.48;11.85;;;19.30;83.20;;;;;;4971711;28;20045;-82
2021/08/30 01:11:50;;;;;;;17.48;12.43;;;19.30;83.50;;;;;;5011344;28;20502;-83
2021/08/30 01:14:20;;;;;;;17.27;10.98;;;19.30;83.30;;;;;;5012624;28;20030;-82
2021/08/30 01:16:47;;;;;;;17.50;11.70;;;19.20;82.70;;;;;;5012652;28;20030;-83
2021/08/30 01:19:19;;;;;;;17.77;12.43;;;19.10;83.10;;;;;;5012242;28;20018;-82
2021/08/30 01:21:47;;;;;;;18.65;11.75;;;19.10;83.50;;;;;;5012451;28;20017;-82
2021/08/30 01:24:17;;;;;;;19.42;11.50;;;19.10;83.90;;;;;;5012537;28;20034;-83
2021/08/30 01:26:54;;;;;;;20.75;12.15;;;19.00;84.10;;;;;;5012550;28;20033;-83
2021/08/30 01:29:46;;;;;;;18.60;11.68;;;19.00;84.10;;;;;;5016102;28;20018;-84
2021/08/30 01:32:29;;;;;;;21.17;12.23;;;18.90;84.10;;;;;;5016178;28;20025;-82
2021/08/30 01:35:00;;;;;;;15.15;11.25;;;18.90;84.40;;;;;;5016478;28;20037;-81
2021/08/30 01:37:29;;;;;;;16.65;12.13;;;18.80;84.20;;;;;;5016326;28;20028;-83
2021/08/30 01:39:56;;;;;;;17.48;12.02;;;18.90;83.60;;;;;;5015182;28;20105;-82
2021/08/30 01:42:22;;;;;;;18.03;12.77;;;18.90;83.60;;;;;;5015806;28;20037;-84
2021/08/30 01:44:48;;;;;;;17.52;11.95;;;18.90;83.20;;;;;;5016242;28;20054;-83
2021/08/30 01:47:15;;;;;;;21.83;11.98;;;19.00;83.00;;;;;;5016158;28;20034;-83
2021/08/30 01:49:43;;;;;;;23.42;11.88;;;19.00;83.10;;;;;;5016136;28;20084;-82
2021/08/30 01:52:09;;;;;;;22.38;11.82;;;19.00;83.00;;;;;;5016106;28;20085;-84
2021/08/30 01:54:35;;;;;;;17.33;12.30;;;19.00;82.30;;;;;;5015762;28;20108;-82
2021/08/30 01:57:01;;;;;;;14.57;11.70;;;19.00;82.40;;;;;;5015868;28;20110;-84
2021/08/30 02:02:12;;;;;;;17.30;12.13;;;18.90;82.70;;;;;;5015887;28;20052;-83
2021/08/30 02:04:38;;;;;;;19.35;12.15;;;18.90;82.30;;;;;;5015535;28;20391;-83
2021/08/30 02:07:05;;;;;;;16.60;11.60;;;18.90;82.30;;;;;;5015845;28;20113;-83
2021/08/30 02:09:31;;;;;;;24.17;11.60;;;18.90;82.30;;;;;;5015756;28;20058;-83
2021/08/30 02:11:57;;;;;;;20.25;11.43;;;18.90;82.40;;;;;;5016240;28;20048;-81
2021/08/30 02:14:23;;;;;;;25.38;12.52;;;18.90;82.00;;;;;;5015734;28;20021;-81
2021/08/30 02:16:50;;;;;;;19.15;11.48;;;18.90;82.00;;;;;;5017695;28;20022;-81
2021/08/30 02:19:28;;;;;;;14.50;10.68;;;18.90;82.60;;;;;;5015772;28;20064;-80
2021/08/30 02:21:58;;;;;;;19.92;11.90;;;18.90;82.30;;;;;;5014872;28;20387;-81
2021/08/30 02:24:35;;;;;;;19.00;11.85;;;18.90;82.20;;;;;;5014783;28;20022;-81
2021/08/30 02:27:48;;;;;;;18.52;12.02;;;18.90;82.00;;;;;;5014674;28;20152;-80
2021/08/30 02:30:29;;;;;;;24.42;11.73;;;19.00;82.20;;;;;;5011544;28;20036;-80
2021/08/30 02:33:01;;;;;;;15.15;11.55;;;19.00;81.80;;;;;;5015922;28;20026;-82
2021/08/30 02:35:31;;;;;;;14.70;10.10;;;19.00;82.40;;;;;;5015174;28;20014;-81
2021/08/30 02:37:58;;;;;;;22.70;12.02;;;19.10;82.40;;;;;;5015156;28;20025;-80
2021/08/30 02:40:27;;;;;;;23.42;12.48;;;19.10;82.30;;;;;;5014712;28;20420;-83
2021/08/30 02:42:55;;;;;;;19.10;11.93;;;19.10;82.00;;;;;;5014927;28;20057;-81
2021/08/30 02:45:22;;;;;;;19.55;10.77;;;19.10;82.40;;;;;;5014815;28;20029;-82
2021/08/30 02:47:50;;;;;;;24.15;11.85;;;19.00;82.10;;;;;;5015315;28;20030;-81
2021/08/30 02:50:16;;;;;;;20.35;13.18;;;18.90;82.60;;;;;;5015048;28;20018;-82
2021/08/30 02:52:44;;;;;;;19.33;12.20;;;18.90;82.90;;;;;;5015348;28;20018;-82
2021/08/30 02:55:10;;;;;;;23.85;12.25;;;18.90;83.20;;;;;;5015064;28;20018;-82
2021/08/30 02:57:38;;;;;;;20.40;13.73;;;19.00;83.30;;;;;;5015307;28;20170;-82
2021/08/30 03:00:06;;;;;;;21.95;13.70;;;19.00;83.30;;;;;;5013779;28;20018;-83
2021/08/30 03:02:32;;;;;;;;;;;19.10;82.70;;;;;;5014847;28;20021;-84
2021/08/30 03:04:59;;;;;;;17.58;12.82;;;19.10;82.30;;;;;;5014977;28;19992;-82
2021/08/30 03:07:30;;;;;;;23.08;13.65;;;19.20;82.80;;;;;;5014826;28;20025;-83
2021/08/30 03:09:57;;;;;;;23.73;13.30;;;19.30;82.70;;;;;;5015938;28;20529;-82
2021/08/30 03:12:25;;;;;;;22.60;12.82;;;19.40;82.40;;;;;;5023651;28;20049;-82
2021/08/30 03:14:54;;;;;;;22.90;12.48;;;19.50;82.50;;;;;;5038848;28;20006;-82
2021/08/30 03:17:22;;;;;;;21.98;13.52;;;19.50;82.40;;;;;;5016624;28;20079;-84
2021/08/30 03:19:51;;;;;;;23.20;12.90;;;19.60;82.20;;;;;;5013475;28;20022;-86
2021/08/30 03:22:18;;;;;;;17.02;12.00;;;19.70;81.40;;;;;;5014621;28;20042;-84
2021/08/30 03:24:45;;;;;;;24.13;13.98;;;19.80;81.30;;;;;;5014555;28;20018;-84
2021/08/30 03:27:12;;;;;;;19.88;13.40;;;19.80;81.50;;;;;;5014388;28;20391;-82
2021/08/30 03:29:39;;;;;;;18.10;13.10;;;19.80;82.40;;;;;;5014322;28;20422;-85
2021/08/30 03:32:11;;;;;;;17.10;12.27;;;19.70;82.90;;;;;;5014155;28;20038;-82
2021/08/30 03:34:37;;;;;;;24.00;13.63;;;19.70;83.60;;;;;;5014098;28;20533;-83
2021/08/30 03:37:07;;;;;;;15.73;13.35;;;19.60;85.00;;;;;;5013967;28;20022;-84
2021/08/30 03:39:33;;;;;;;21.55;13.18;;;19.50;86.10;;;;;;5013947;28;20018;-84
2021/08/30 03:42:02;;;;;;;20.00;12.93;;;19.30;87.20;;;;;;5014134;28;20026;-84
2021/08/30 03:44:29;;;;;;;21.75;13.35;;;19.20;88.90;;;;;;5013014;28;20144;-83
2021/08/30 03:46:55;;;;;;;19.30;14.07;;;19.10;90.30;;;;;;5013077;28;20022;-82
2021/08/30 03:49:23;;;;;;;20.17;13.00;;;18.90;90.80;;;;;;5013082;28;20026;-83
2021/08/30 03:51:51;;;;;;;17.40;15.07;;;18.80;91.40;;;;;;5012318;28;20022;-82
2021/08/30 03:54:17;;;;;;;20.38;14.68;;;18.80;92.00;;;;;;5007204;28;20050;-83
2021/08/30 03:56:44;;;;;;;24.88;14.80;;;18.70;92.50;;;;;;5004827;28;20064;-84
2021/08/30 03:59:11;;;;;;;23.25;16.80;;;18.70;92.90;;;;;;5012911;28;20449;-84
2021/08/30 04:01:40;;;;;;;23.05;15.85;;;18.60;93.30;;;;;;5004188;28;20047;-83
2021/08/30 04:04:09;;;;;;;22.98;16.13;;;18.40;93.80;;;;;;5012723;28;20041;-83
2021/08/30 04:06:35;;;;;;;26.25;17.95;;;18.40;94.20;;;;;;5011844;28;20037;-82
2021/08/30 04:09:02;;;;;;;26.77;18.05;;;18.20;94.80;;;;;;5012589;28;20580;-83
2021/08/30 04:11:28;;;;;;;23.42;17.70;;;18.20;95.50;;;;;;5013012;28;20041;-82
2021/08/30 04:13:54;;;;;;;24.15;20.30;;;18.20;95.90;;;;;;5013113;28;20018;-82
2021/08/30 04:16:20;;;;;;;22.60;17.88;;;18.20;96.10;;;;;;5013420;28;20104;-81
2021/08/30 04:18:46;;;;;;;24.83;19.15;;;18.20;96.30;;;;;;5012980;28;20056;-83
2021/08/30 04:21:12;;;;;;;22.30;18.48;;;18.30;96.50;;;;;;5012750;28;20026;-84
2021/08/30 04:23:40;;;;;;;24.65;19.48;;;18.30;96.80;;;;;;5012132;28;20507;-83
2021/08/30 04:26:06;;;;;;;27.48;19.55;;;18.30;97.10;;;;;;5010963;28;20479;-85
2021/08/30 04:28:32;;;;;;;24.50;19.92;;;18.30;97.10;;;;;;5012109;28;20438;-83
2021/08/30 04:30:58;;;;;;;25.02;20.17;;;18.30;97.20;;;;;;5012326;28;20022;-85
2021/08/30 04:33:23;;;;;;;27.38;20.30;;;18.30;97.50;;;;;;5012127;28;20046;-84
2021/08/30 04:35:50;;;;;;;23.25;18.63;;;18.20;97.80;;;;;;5012937;28;20076;-82
2021/08/30 04:38:16;;;;;;;27.58;19.15;;;18.20;97.90;;;;;;5011799;28;20037;-84
2021/08/30 04:40:41;;;;;;;26.67;17.35;;;18.20;97.80;;;;;;5011588;28;20022;-85
2021/08/30 04:43:12;;;;;;;27.33;17.77;;;18.10;97.80;;;;;;4968436;28;1260309;-84
2021/08/30 04:45:46;;;;;;;31.30;18.17;;;18.10;97.90;;;;;;5012240;28;20080;-83
2021/08/30 04:48:12;;;;;;;27.83;18.75;;;18.10;98.10;;;;;;5012934;28;20030;-82
2021/08/30 04:50:38;;;;;;;22.40;17.52;;;18.10;98.40;;;;;;5013330;28;20022;-83
2021/08/30 04:53:04;;;;;;;27.02;19.10;;;18.10;98.50;;;;;;5012817;28;20097;-83
2021/08/30 04:55:30;;;;;;;27.83;19.05;;;18.10;98.70;;;;;;5012308;28;20025;-81
2021/08/30 04:57:56;;;;;;;26.83;18.58;;;18.00;98.90;;;;;;5012742;28;20030;-83
2021/08/30 05:00:22;;;;;;;28.85;22.00;;;18.00;99.20;;;;;;5006730;28;20033;-83
2021/08/30 05:02:47;;;;;;;27.45;19.02;;;18.00;99.90;;;;;;5011619;28;20403;-81
2021/08/30 05:05:13;;;;;;;24.60;18.42;;;18.10;99.90;;;;;;5011465;28;20487;-84
2021/08/30 05:07:39;;;;;;;31.15;19.75;;;18.10;99.90;;;;;;5018556;28;20108;-83
2021/08/30 05:10:05;;;;;;;27.85;19.73;;;18.10;99.90;;;;;;5025309;28;20026;-83
2021/08/30 05:12:31;;;;;;;24.88;18.08;;;18.10;99.90;;;;;;5018614;28;20503;-84
2021/08/30 05:14:57;;;;;;;29.10;20.92;;;18.10;99.90;;;;;;5012966;28;20057;-83
2021/08/30 05:17:23;;;;;;;25.42;19.92;;;18.10;99.90;;;;;;4994697;28;20031;-84
2021/08/30 05:19:48;;;;;;;30.77;20.02;;;18.20;99.90;;;;;;5008912;28;20034;-82
2021/08/30 05:22:14;;;;;;;27.15;20.85;;;18.30;99.90;;;;;;5012703;28;20049;-83
2021/08/30 05:24:42;;;;;;;23.50;19.35;;;18.30;99.90;;;;;;5013431;28;20084;-85
2021/08/30 05:27:07;;;;;;;;;;;18.30;99.90;;;;;;5016783;28;20014;-82
2021/08/30 05:29:34;;;;;;;33.42;20.77;;;18.30;99.90;;;;;;5034189;28;19983;-85
2021/08/30 05:32:00;;;;;;;30.88;19.58;;;18.30;99.90;;;;;;5019990;28;20741;-83
2021/08/30 05:34:26;;;;;;;26.50;18.90;;;18.30;99.90;;;;;;5012876;28;20030;-83
2021/08/30 05:36:51;;;;;;;24.90;18.52;;;18.40;99.90;;;;;;5013256;28;20443;-84
2021/08/30 05:39:17;;;;;;;29.23;19.55;;;18.40;99.90;;;;;;5012792;28;20064;-85
2021/08/30 05:41:43;;;;;;;29.55;20.35;;;18.50;99.90;;;;;;5013182;28;20037;-84
2021/08/30 05:44:09;;;;;;;25.92;20.20;;;18.70;99.90;;;;;;5011247;28;20050;-84
2021/08/30 05:46:35;;;;;;;25.92;20.92;;;18.90;99.90;;;;;;5012601;28;20033;-83
2021/08/30 05:49:02;;;;;;;28.90;20.75;;;19.00;99.90;;;;;;5012912;28;20033;-83
2021/08/30 05:51:27;;;;;;;31.60;21.15;;;19.10;99.90;;;;;;5011751;28;20436;-83
2021/08/30 05:53:53;;;;;;;36.42;21.75;;;19.10;99.50;;;;;;5012407;28;20146;-83
2021/08/30 05:56:19;;;;;;;29.17;20.77;;;19.20;99.20;;;;;;5010817;28;20072;-83
2021/08/30 05:58:45;;;;;;;27.48;20.83;;;19.20;99.30;;;;;;5009243;28;20030;-84
2021/08/30 06:01:11;;;;;;;27.50;21.83;;;19.30;98.90;;;;;;5009044;28;20423;-84
2021/08/30 06:03:37;;;;;;;26.48;19.95;;;19.20;98.70;;;;;;5012763;28;20495;-84
2021/08/30 06:06:03;;;;;;;29.65;21.83;;;19.20;98.90;;;;;;5011714;28;20491;-84
2021/08/30 06:08:29;;;;;;;31.17;20.67;;;19.20;98.80;;;;;;5012438;28;20109;-84
2021/08/30 06:10:58;;;;;;;26.13;19.25;;;19.30;98.80;;;;;;5011415;28;20113;-83
2021/08/30 06:13:25;;;;;;;30.55;20.13;;;19.40;98.40;;;;;;5011903;28;20069;-82
2021/08/30 06:15:51;;;;;;;26.02;19.35;;;19.40;97.80;;;;;;5015104;28;20022;-83
2021/08/30 06:18:17;;;;;;;23.58;20.08;;;19.50;97.60;;;;;;5016226;28;20033;-85
2021/08/30 06:20:43;;;;;;;25.80;19.83;;;19.50;97.70;;;;;;5016178;28;20026;-83
2021/08/30 06:23:09;;;;;;;26.52;20.23;;;19.60;97.80;;;;;;5013811;28;20491;-84
2021/08/30 06:25:35;;;;;;;28.88;18.83;;;19.60;97.30;;;;;;5013936;28;20084;-86
2021/08/30 06:28:01;;;;;;;28.90;20.48;;;19.60;97.20;;;;;;5015251;28;20037;-85
2021/08/30 06:30:27;;;;;;;29.02;20.55;;;19.60;97.40;;;;;;5009808;28;20412;-85
2021/08/30 06:32:53;;;;;;;28.92;20.27;;;19.70;97.50;;;;;;5006623;28;20030;-85
2021/08/30 06:35:20;;;;;;;33.10;26.70;;;19.80;97.30;;;;;;5015430;28;20079;-84
2021/08/30 06:37:45;;;;;;;28.65;24.13;;;19.80;96.90;;;;;;5016046;28;20022;-88
2021/08/30 06:40:12;;;;;;;29.48;24.70;;;19.70;96.70;;;;;;5012929;28;20480;-87
2021/08/30 06:42:38;;;;;;;33.40;24.38;;;19.50;97.60;;;;;;5012935;28;20034;-84
2021/08/30 06:45:05;;;;;;;32.90;24.83;;;19.50;97.30;;;;;;5013185;28;20048;-84
2021/08/30 06:47:31;;;;;;;30.92;24.88;;;19.50;97.60;;;;;;5000952;28;20018;-81
2021/08/30 06:49:57;;;;;;;35.88;27.38;;;19.50;97.00;;;;;;5014828;28;20031;-83
2021/08/30 06:52:23;;;;;;;36.40;30.08;;;19.70;96.50;;;;;;5015826;28;20080;-83
2021/08/30 06:54:49;;;;;;;40.58;28.52;;;19.80;96.30;;;;;;5013588;28;20018;-83
2021/08/30 06:57:15;;;;;;;37.95;28.92;;;20.00;96.20;;;;;;5016050;28;20383;-83
2021/08/30 06:59:41;;;;;;;40.05;28.02;;;20.20;95.70;;;;;;5012862;28;20022;-84
2021/08/30 07:02:07;;;;;;;31.23;24.15;;;20.40;95.20;;;;;;5013837;28;20025;-85
2021/08/30 07:04:32;;;;;;;35.10;24.33;;;20.50;94.40;;;;;;5014732;28;20096;-83
2021/08/30 07:06:58;;;;;;;29.63;21.13;;;20.50;93.50;;;;;;5012547;28;20104;-83
2021/08/30 07:09:24;;;;;;;29.48;23.25;;;20.60;92.50;;;;;;5014003;28;20096;-83
2021/08/30 07:11:51;;;;;;;26.10;22.40;;;20.60;92.20;;;;;;5014322;28;20037;-86
2021/08/30 07:14:17;;;;;;;31.85;22.00;;;20.60;91.80;;;;;;5014090;28;20022;-83
2021/08/30 07:16:44;;;;;;;38.00;23.38;;;20.60;91.30;;;;;;5014266;28;20427;-83
2021/08/30 07:19:10;;;;;;;35.80;22.90;;;20.60;91.00;;;;;;5013919;28;20043;-85
2021/08/30 07:21:36;;;;;;;31.73;21.50;;;20.60;91.20;;;;;;5014419;28;20275;-81
2021/08/30 07:24:02;;;;;;;37.97;23.05;;;20.90;90.50;;;;;;5013990;28;20060;-83
2021/08/30 07:26:29;;;;;;;38.15;25.15;;;21.30;89.10;;;;;;5012972;28;20022;-85
2021/08/30 07:28:55;;;;;;;;;;;21.70;87.70;;;;;;5014469;28;20108;-82
2021/08/30 07:31:21;;;;;;;27.65;21.25;;;22.00;88.60;;;;;;5014021;28;19960;-82
2021/08/30 07:33:47;;;;;;;30.38;20.10;;;22.10;84.80;;;;;;5013916;28;20483;-83
2021/08/30 07:36:13;;;;;;;31.77;22.50;;;21.80;85.40;;;;;;5014129;28;20076;-83
2021/08/30 07:38:41;;;;;;;29.73;22.83;;;21.60;85.90;;;;;;5014271;28;20543;-83
2021/08/30 07:41:06;;;;;;;30.80;21.58;;;21.40;86.50;;;;;;5016288;28;20053;-82
2021/08/30 07:43:32;;;;;;;32.20;23.65;;;21.30;86.90;;;;;;5018235;28;20049;-82
2021/08/30 07:46:00;;;;;;;31.95;21.17;;;21.20;88.60;;;;;;5034947;28;20049;-81
2021/08/30 07:48:25;;;;;;;;;;;20.90;87.70;;;;;;5022987;28;20091;-83
2021/08/30 07:50:52;;;;;;;31.90;22.85;;;20.60;88.50;;;;;;5012697;28;20000;-83
2021/08/30 07:53:18;;;;;;;28.10;21.70;;;20.50;90.10;;;;;;5010770;28;20447;-83
2021/08/30 07:55:44;;;;;;;28.88;21.20;;;20.50;90.40;;;;;;5013390;28;20057;-83
2021/08/30 07:58:10;;;;;;;26.17;20.15;;;20.50;89.90;;;;;;5015939;28;20483;-82
2021/08/30 08:00:36;;;;;;;24.65;20.02;;;20.40;89.80;;;;;;5015777;28;20044;-81
2021/08/30 08:03:02;;;;;;;25.83;20.63;;;20.30;90.10;;;;;;5014919;28;20070;-83
2021/08/30 08:05:28;;;;;;;28.38;20.58;;;20.20;90.40;;;;;;5012641;28;20081;-84
2021/08/30 08:07:53;;;;;;;29.88;22.15;;;20.20;90.50;;;;;;5013241;28;20014;-83
2021/08/30 08:10:19;;;;;;;28.50;21.23;;;20.10;90.50;;;;;;5013562;28;20045;-80
2021/08/30 08:12:45;;;;;;;31.02;21.58;;;20.10;90.50;;;;;;5013640;28;20022;-84
2021/08/30 08:15:11;;;;;;;26.73;21.77;;;20.20;90.70;;;;;;5015736;28;20100;-82
2021/08/30 08:17:37;;;;;;;30.65;21.90;;;20.40;90.70;;;;;;5013163;28;20387;-83
2021/08/30 08:20:04;;;;;;;30.85;21.88;;;20.70;90.70;;;;;;5011740;28;20423;-83
2021/08/30 08:22:34;;;;;;;27.05;21.13;;;21.30;89.30;;;;;;5013076;28;20046;-83
2021/08/30 08:25:01;;;;;;;23.45;20.67;;;21.90;86.30;;;;;;5014017;28;20014;-83
2021/08/30 08:27:28;;;;;;;;;;;22.80;82.90;;;;;;5014146;28;20018;-83
2021/08/30 08:29:54;;;;;;;24.80;18.92;;;24.20;84.50;;;;;;5013581;28;19906;-83
2021/08/30 08:32:20;;;;;;;28.75;19.48;;;25.70;75.10;;;;;;5012171;28;20018;-84
2021/08/30 08:34:46;;;;;;;29.33;20.25;;;26.30;69.40;;;;;;5013878;28;20037;-83
2021/08/30 08:37:11;;;;;;;29.17;18.75;;;25.90;68.00;;;;;;5013699;28;20057;-82
2021/08/30 08:39:37;;;;;;;31.92;21.17;;;25.90;69.30;;;;;;5017765;28;20049;-82
2021/08/30 08:42:03;;;;;;;28.58;19.15;;;26.10;68.20;;;;;;5020903;28;20014;-85
2021/08/30 08:44:29;;;;;;;26.73;19.20;;;27.10;67.80;;;;;;5014451;28;20073;-84
2021/08/30 08:46:55;;;;;;;24.75;17.42;;;28.40;63.10;;;;;;5012654;28;20088;-82
2021/08/30 08:49:22;;;;;;;25.60;16.30;;;30.40;59.90;;;;;;5012543;28;20419;-83
2021/08/30 08:51:48;;;;;;;;;;;30.90;55.40;;;;;;5012179;28;20027;-85
2021/08/30 08:54:14;;;;;;;21.57;17.83;;;31.50;57.40;;;;;;5003779;28;19911;-83
2021/08/30 08:56:41;;;;;;;27.75;19.17;;;30.80;53.20;;;;;;5012052;28;20022;-84
2021/08/30 08:59:07;;;;;;;21.83;18.73;;;30.40;54.60;;;;;;5011621;28;20565;-84
2021/08/30 09:01:36;;;;;;;24.20;18.60;;;30.60;54.80;;;;;;5013198;28;20045;-83
2021/08/30 09:04:02;;;;;;;23.65;17.25;;;31.50;52.50;;;;;;5011818;28;20045;-84
2021/08/30 09:06:42;;;;;;;26.27;19.13;;;31.10;51.60;;;;;;5013421;28;20487;-83
2021/08/30 09:09:17;;;;;;;24.30;19.52;;;29.70;54.20;;;;;;5013173;28;20045;-85
2021/08/30 09:11:52;;;;;;;20.38;17.40;;;29.00;56.40;;;;;;5013063;28;20030;-84
2021/08/30 09:14:22;;;;;;;22.65;17.80;;;29.70;56.90;;;;;;5013020;28;20068;-83
2021/08/30 09:17:00;;;;;;;26.33;19.70;;;31.00;54.20;;;;;;5013219;28;20029;-83
2021/08/30 09:19:26;;;;;;;20.25;18.00;;;30.90;52.30;;;;;;5011824;28;20034;-85
2021/08/30 09:21:52;;;;;;;25.35;17.48;;;30.30;53.00;;;;;;5011366;28;20017;-84
2021/08/30 09:24:20;;;;;;;25.17;18.15;;;29.50;54.70;;;;;;5013219;28;20033;-84
2021/08/30 09:26:52;;;;;;;22.15;17.92;;;28.70;56.20;;;;;;5012493;28;20025;-83
2021/08/30 09:29:20;;;;;;;24.85;16.92;;;28.00;58.80;;;;;;5013016;28;20018;-84
2021/08/30 09:32:01;;;;;;;23.52;19.30;;;27.30;61.40;;;;;;5012636;28;20117;-83
2021/08/30 09:34:44;;;;;;;22.70;18.58;;;26.70;62.10;;;;;;5011250;28;20053;-85
2021/08/30 09:37:21;;;;;;;29.08;18.17;;;25.90;64.50;;;;;;5011526;28;20121;-84
2021/08/30 09:39:57;;;;;;;23.90;18.48;;;25.50;66.40;;;;;;5013501;28;20022;-85
2021/08/30 09:42:25;;;;;;;31.08;19.20;;;25.30;67.70;;;;;;5012940;28;20018;-83
2021/08/30 09:44:51;;;;;;;21.40;18.38;;;25.20;69.00;;;;;;5012627;28;20021;-85
2021/08/30 09:47:22;;;;;;;24.45;18.77;;;25.30;69.30;;;;;;5012835;28;20018;-84
2021/08/30 09:49:50;;;;;;;23.40;18.27;;;25.60;69.10;;;;;;5015377;28;20030;-85
2021/08/30 09:52:19;;;;;;;20.00;17.20;;;26.20;67.10;;;;;;5007245;28;20117;-85
2021/08/30 09:54:45;;;;;;;23.23;16.98;;;27.00;65.40;;;;;;5016592;28;20432;-84
2021/08/30 09:57:13;;;;;;;24.58;16.60;;;27.80;63.50;;;;;;5016715;28;20022;-82
2021/08/30 09:59:41;;;;;;;23.10;14.93;;;28.50;61.20;;;;;;5018331;28;20037;-85
2021/08/30 10:02:11;;;;;;;26.55;14.73;;;28.60;59.80;;;;;;5028502;28;20116;-82
2021/08/30 10:04:40;;;;;;;19.67;13.70;;;28.60;59.70;;;;;;5033360;28;20088;-83
2021/08/30 10:07:07;;;;;;;17.45;14.18;;;28.70;59.80;;;;;;5017461;28;20079;-83
2021/08/30 10:09:34;;;;;;;21.05;14.40;;;28.70;58.30;;;;;;5016621;28;20030;-85
2021/08/30 10:12:00;;;;;;;17.58;13.50;;;28.10;59.10;;;;;;5019577;28;20034;-82
2021/08/30 10:14:30;;;;;;;23.30;14.07;;;27.80;60.50;;;;;;5024007;28;20070;-84
2021/08/30 10:17:02;;;;;;;21.80;13.48;;;27.70;61.00;;;;;;5016616;28;20014;-85
2021/08/30 10:19:33;;;;;;;20.58;14.20;;;27.50;61.30;;;;;;5016499;28;20076;-84
2021/08/30 10:22:01;;;;;;;20.70;14.43;;;27.20;62.40;;;;;;5012676;28;20467;-84
2021/08/30 10:24:37;;;;;;;19.15;14.30;;;27.00;63.40;;;;;;5016522;28;20037;-86
2021/08/30 10:27:06;;;;;;;18.42;13.15;;;26.80;63.80;;;;;;5016255;28;20026;-84
2021/08/30 10:29:34;;;;;;;19.58;13.98;;;26.30;64.90;;;;;;5016334;28;20041;-84
2021/08/30 10:32:00;;;;;;;17.60;13.48;;;25.80;66.30;;;;;;5015720;28;20021;-83
2021/08/30 10:34:28;;;;;;;18.65;13.57;;;25.50;67.40;;;;;;5015801;28;20022;-84
2021/08/30 10:36:55;;;;;;;18.90;13.98;;;25.30;68.10;;;;;;5015577;28;20029;-82
2021/08/30 10:39:23;;;;;;;17.73;13.85;;;24.90;69.20;;;;;;5018332;28;20026;-84
2021/08/30 10:41:50;;;;;;;26.30;15.27;;;24.60;70.50;;;;;;5015367;28;20380;-83
2021/08/30 10:44:21;;;;;;;20.20;14.32;;;24.60;71.20;;;;;;5015265;28;20391;-84
2021/08/30 10:46:53;;;;;;;25.27;12.82;;;24.70;71.30;;;;;;5015657;28;20407;-83
2021/08/30 10:49:29;;;;;;;20.45;13.98;;;24.80;71.60;;;;;;5015556;28;20022;-84
2021/08/30 10:52:14;;;;;;;16.42;14.35;;;24.90;71.10;;;;;;5012463;28;20440;-82
2021/08/30 10:54:59;;;;;;;19.98;13.95;;;25.10;70.70;;;;;;5015582;28;20026;-84
2021/08/30 10:57:39;;;;;;;21.50;14.07;;;25.30;70.40;;;;;;5015215;28;20379;-82
2021/08/30 11:00:09;;;;;;;19.85;15.23;;;25.60;70.00;;;;;;5016090;28;20414;-83
2021/08/30 11:02:46;;;;;;;20.10;13.80;;;25.70;69.60;;;;;;5016547;28;20026;-83
2021/08/30 11:05:12;;;;;;;19.95;13.48;;;26.00;69.20;;;;;;5015660;28;20081;-83
2021/08/30 11:07:38;;;;;;;18.90;13.55;;;26.10;68.00;;;;;;5014821;28;20541;-83
2021/08/30 11:10:06;;;;;;;17.65;13.80;;;26.10;67.70;;;;;;5014968;28;20026;-83
2021/08/30 11:12:32;;;;;;;20.05;14.30;;;26.10;67.30;;;;;;5014971;28;20026;-82
2021/08/30 11:14:59;;;;;;;22.45;15.02;;;26.10;67.10;;;;;;5014830;28;20022;-84
2021/08/30 11:17:33;;;;;;;20.20;13.77;;;26.00;67.90;;;;;;5013195;28;20033;-82
2021/08/30 11:20:01;;;;;;;16.27;12.50;;;26.20;67.70;;;;;;5014455;28;20033;-83
2021/08/30 11:22:28;;;;;;;23.10;14.07;;;26.40;68.20;;;;;;5014840;28;20021;-84
2021/08/30 11:24:54;;;;;;;16.35;13.57;;;26.70;67.30;;;;;;5014950;28;20558;-83
2021/08/30 11:27:27;;;;;;;16.00;13.02;;;26.90;66.60;;;;;;5013515;28;20121;-86
2021/08/30 11:29:55;;;;;;;19.40;13.15;;;26.90;65.90;;;;;;5014996;28;20097;-83
2021/08/30 11:32:32;;;;;;;23.75;16.10;;;26.80;66.20;;;;;;5014835;28;20022;-84
2021/08/30 11:35:00;;;;;;;17.98;13.50;;;26.70;66.30;;;;;;5014774;28;20022;-84
2021/08/30 11:37:31;;;;;;;17.05;13.50;;;26.70;67.70;;;;;;5014726;28;20065;-84
2021/08/30 11:39:59;;;;;;;20.10;14.07;;;26.40;67.10;;;;;;5017414;28;20026;-83
2021/08/30 11:42:28;;;;;;;20.35;13.90;;;26.20;67.20;;;;;;5016075;28;20480;-84
2021/08/30 11:44:54;;;;;;;26.02;14.32;;;26.00;67.10;;;;;;5020941;28;20030;-83
2021/08/30 11:47:21;;;;;;;24.08;12.77;;;25.90;67.60;;;;;;5021607;28;20018;-83
2021/08/30 11:49:52;;;;;;;21.15;15.18;;;25.80;67.80;;;;;;5012563;28;20049;-82
2021/08/30 11:52:21;;;;;;;25.73;12.98;;;25.70;68.10;;;;;;5014319;28;20018;-83
2021/08/30 11:55:08;;;;;;;15.07;12.52;;;25.80;68.20;;;;;;5014389;28;20109;-82
2021/08/30 11:57:47;;;;;;;;;;;25.90;68.20;;;;;;5015006;28;20049;-84
2021/08/30 12:00:15;;;;;;;18.13;12.40;;;26.10;67.60;;;;;;5014664;28;19921;-84
2021/08/30 12:02:42;;;;;;;19.88;12.85;;;26.20;67.70;;;;;;5014522;28;20032;-83
2021/08/30 12:05:09;;;;;;;24.40;12.48;;;26.30;67.10;;;;;;5015267;28;20379;-81
2021/08/30 12:07:36;;;;;;;15.98;13.75;;;26.30;66.40;;;;;;5013709;28;20026;-84
2021/08/30 12:10:08;;;;;;;22.73;12.95;;;26.30;66.80;;;;;;5012748;28;20503;-84
2021/08/30 12:12:37;;;;;;;18.83;13.23;;;26.30;67.30;;;;;;5012229;28;20124;-85
2021/08/30 12:15:13;;;;;;;21.75;12.43;;;26.30;66.60;;;;;;5015273;28;20022;-82
2021/08/30 12:17:45;;;;;;;20.50;12.75;;;26.40;65.70;;;;;;5015153;28;20018;-84
2021/08/30 12:20:14;;;;;;;18.95;11.82;;;26.50;65.40;;;;;;5027496;28;20025;-83
2021/08/30 12:22:46;;;;;;;18.60;11.00;;;26.50;64.60;;;;;;5028215;28;20022;-84
2021/08/30 12:25:21;;;;;;;18.02;11.80;;;26.40;64.30;;;;;;5013239;28;20033;-85
2021/08/30 12:27:49;;;;;;;20.10;12.43;;;26.30;65.20;;;;;;5014017;28;20101;-82
2021/08/30 12:30:17;;;;;;;18.52;11.38;;;26.20;65.60;;;;;;5012978;28;20029;-83
2021/08/30 12:32:58;;;;;;;18.55;12.32;;;26.10;65.80;;;;;;5013812;28;20025;-83
2021/08/30 12:35:42;;;;;;;22.92;13.00;;;26.00;65.70;;;;;;5013582;28;20022;-83